ACT        NSW        VIC        QLD        SA        WA        TAS        NT        INFO        CALC            by VK5ZD

  Atmospheric Gas Attenuation - ITU Rec 676-11   --------------- db/100km ---------------
TAS Stations Date Time Temp RH % AH g/m3 Dew Point Wind Direction Speed kph Gust kph Barometer mB Rainfall Since 9am 24GHz 47GHz 76GHz 122GHz 134GHz 241GHz
Bicheno 11 09:00 12 59 6.29 4.3 19 1013.1 0.4 14.7 22.8 31.6 82.6 70.8 241.4
Bushy Park 11 21:50 7 89 6.9 5.4 6 7 1013.1 5 16.2 25.0 36.1 94.6 83.6 285.8
Butlers Gorge 11 21:50 3.7 76 4.74 -0.1 13 15 1013.1 17.6 11.7 22.4 28.8 74.9 57.9 195.3
Campania 11 21:50 8.8 75 6.53 4.6 22 24 1013.1 5.2 15.4 24.0 33.8 88.5 76.8 262.2
Cape Bruny 11 15:00 11.4 64 6.57 4.9 28 1013.1 2 15.4 23.3 32.9 86.1 74.8 255.6
Cape Bruny Aws 11 21:50 8.3 81 6.83 5.2 33 46 1015 3.8 16.0 24.6 35.3 92.5 81.4 278.3
Cape Grim 11 21:50 11.6 79 8.21 8.1 41 50 1019.2 0 18.9 26.1 39.6 103.8 96.4 331.3
Cape Sorell 11 21:50 12 73 7.78 7.3 30 33 1013.1 3.2 17.9 25.1 37.4 98.0 89.8 308.0
Cressy 11 21:50 9.5 56 5.1 1.2 15 19 1013.1 0 12.3 21.6 28.1 73.2 58.2 196.9
Davey Gorge (Pws) 11 21:30 9.4 65 5.88 3.1 17 19 1013.1 6.8 14.0 22.8 31.1 81.1 67.9 231.1
Dennes Point 11 21:50 8.3 82 6.91 5.5 19 22 1013.1 16.4 16.2 24.7 35.6 93.1 82.4 281.6
Devonport Airport 11 21:50 9.3 62 5.57 2.4 22 24 1015.9 0 13.3 22.4 30.0 78.3 64.3 218.3
Dove River (Pws) 11 21:40 0.7 88 4.48 -1 44 48 1013.1 8.2 11.3 22.8 28.8 75.0 56.7 190.6
Dover 11 09:00 6.8 97 7.42 6.4 24 1013.1 19 17.4 26.0 38.4 100.6 91.0 311.6
Dunalley 11 21:50 10 79 7.43 6.5 44 48 1013.1 10.8 17.3 25.1 36.9 96.7 87.4 299.6
Fingal 11 21:50 8.1 61 5.08 1 17 20 1013.1 0 12.3 21.9 28.5 74.3 59.0 199.5
Flinders Island Airport 11 21:50 13 52 5.9 3.4 46 52 1013.8 0 13.9 21.9 29.8 77.8 65.2 222.0
Friendly Beaches 11 21:50 8.7 75 6.49 4.5 20 30 1013.1 2.4 15.3 23.9 33.7 88.2 76.4 260.7
Grove 11 21:50 6.7 88 6.69 4.9 6 7 1013.1 7.8 15.8 24.8 35.4 92.6 81.1 276.9
Hartz Mountains 11 21:50 1.5 98 5.27 1.2 48 61 1013.1 34.8 12.9 23.9 31.8 82.9 66.8 225.9
Hobart 11 21:50 8.3 76 6.41 4.3 15 28 1015.2 8.2 15.1 24.0 33.7 88.0 75.9 258.9
Hobart Airport 11 21:50 8.6 73 6.28 4 19 28 1015.1 9.6 14.8 23.7 33.0 86.3 73.9 251.9
King Island Airport 11 21:50 10.3 94 9 9.4 28 32 1021.2 0.4 20.6 27.9 43.7 114.7 109.3 375.9
Kunanyi / Mount Wellington 11 21:50 -0.8 100 4.59 -0.8 28 30 1013.1 3.8 11.5 23.3 29.8 77.7 59.3 199.5
Larapuna (Eddystone Point) 11 21:50 9.8 83 7.7 7.1 20 24 1013.3 0 17.8 25.6 38.1 99.9 91.3 313.1
Launceston 11 21:50 9.3 65 5.84 3.2 6 6 1013.1 0 13.9 22.7 31.0 80.8 67.5 229.6
Launceston Airport 11 21:50 9.4 59 5.34 1.8 19 24 1014.6 0 12.8 22.0 29.1 75.8 61.3 207.8
Low Head 11 21:50 11.3 64 6.53 4.7 22 24 1015.1 0 15.3 23.4 32.9 85.9 74.5 254.5
Low Rocky Point 11 21:50 10.8 75 7.41 6.6 26 32 1017.5 3.8 17.2 25.0 36.7 96.0 86.6 296.7
Luncheon Hill 11 21:50 6 95 6.9 5.3 32 35 1013.1 6.6 16.3 25.3 36.6 95.8 84.7 289.5
Macquarie Island 11 21:50 6 93 6.75 5 19 20 1000.3 0 16.0 24.6 35.4 92.9 81.7 279.2
Maria Island 11 21:50 9.9 87 8.13 7.8 48 56 1013.1 11.4 18.8 26.3 39.8 104.5 97.0 333.1
Mount Read 11 21:50 0.2 100 4.92 0.2 50 57 1013.1 21.2 12.2 23.6 30.8 80.3 63.1 212.7
Orford 11 09:00 7.2 95 7.46 6.5 24 1013.1 4 17.4 25.9 38.4 100.6 91.1 311.9
Ouse 11 21:50 8 70 5.79 2.9 11 13 1015.8 1.6 13.8 23.1 31.4 81.9 68.2 231.7
Pws A 11 21:00 4.3 89 5.78 2.6 6 7 1013.1 27.4 13.9 23.9 32.7 85.4 71.2 241.8
Pws C 11 21:40 8.2 77 6.45 4.5 13 17 1013.1 11.2 15.2 24.0 33.8 88.3 76.4 260.6
Scotts Peak 11 21:50 5.1 100 6.85 5.1 11 11 1013.1 13.8 16.2 25.5 36.8 96.4 85.0 290.4
Scottsdale 11 21:50 7.7 67 5.44 2 13 15 1013.7 0 13.1 22.5 30.1 78.4 63.8 216.5
Sheffield 11 21:50 6.8 62 4.74 0 11 15 1013.1 0 11.6 21.7 27.7 72.1 55.7 187.8
Smithton 11 21:50 9.9 76 7.1 5.9 30 35 1018.3 0.8 16.6 24.8 35.9 93.8 83.5 285.9
St Helens 11 21:50 9.5 61 5.55 2.4 17 30 1012.9 0 13.3 22.2 29.8 77.6 63.7 216.3
Strahan 11 21:50 9.7 80 7.38 6.4 20 24 1018.1 5 17.2 25.3 37.1 97.0 87.5 299.6
Swan Island 11 21:50 10.4 61 5.88 3.2 19 22 1013.1 0 13.9 22.5 30.7 80.1 67.1 228.2
Tasman Island 11 21:50 8.4 73 6.2 3.8 41 57 1013.1 7.4 14.7 23.5 32.7 85.5 72.9 248.5
Tunnack 11 21:50 5.5 82 5.76 2.7 26 33 1013.7 5.2 13.8 23.6 32.2 84.0 69.9 237.3
Warra 11 21:50 4.4 90 5.88 2.9 19 26 1013.1 12.6 14.1 24.1 33.1 86.4 72.4 246.2
Wynyard 11 21:50 5.2 83 5.72 2.6 15 17 1017.2 0 13.8 23.8 32.3 84.2 69.8 237.1

Last Refresh: 11-Apr-2021 21:28:16

Bureau of Meteorology